createdAt,value
2022-07-31T00:01:23.039Z,94.00
2022-07-31T00:03:50.365Z,93.90
2022-07-31T00:06:19.002Z,94.00
2022-07-31T00:08:45.943Z,94.10
2022-07-31T00:11:12.788Z,94.10
2022-07-31T00:13:58.172Z,94.10
2022-07-31T00:16:25.776Z,94.00
2022-07-31T00:18:52.913Z,93.90
2022-07-31T00:21:19.786Z,94.40
2022-07-31T00:23:46.536Z,94.00
2022-07-31T00:26:13.341Z,94.10
2022-07-31T00:28:40.117Z,94.00
2022-07-31T00:31:06.892Z,93.80
2022-07-31T00:33:33.685Z,94.00
2022-07-31T00:36:00.552Z,93.80
2022-07-31T00:38:27.869Z,93.90
2022-07-31T00:40:55.023Z,94.20
2022-07-31T00:43:21.970Z,94.40
2022-07-31T00:45:58.933Z,94.40
2022-07-31T00:48:27.675Z,94.40
2022-07-31T00:50:55.286Z,94.40
2022-07-31T00:53:22.079Z,94.40
2022-07-31T00:55:51.650Z,94.50
2022-07-31T00:58:19.995Z,94.50
2022-07-31T01:00:47.356Z,94.60
2022-07-31T01:03:14.679Z,94.50
2022-07-31T01:05:41.867Z,94.70
2022-07-31T01:08:08.847Z,94.60
2022-07-31T01:10:54.034Z,94.70
2022-07-31T01:13:30.786Z,94.60
2022-07-31T01:16:00.620Z,94.70
2022-07-31T01:18:31.195Z,94.80
2022-07-31T01:21:03.712Z,94.70
2022-07-31T01:23:54.775Z,94.70
2022-07-31T01:26:40.293Z,94.60
2022-07-31T01:29:27.226Z,94.50
2022-07-31T01:32:08.159Z,94.50
2022-07-31T01:34:38.215Z,94.50
2022-07-31T01:37:20.847Z,94.60
2022-07-31T01:39:54.676Z,94.60
2022-07-31T01:42:25.070Z,94.50
2022-07-31T01:44:56.382Z,94.50
2022-07-31T01:47:24.356Z,94.40
2022-07-31T01:49:53.166Z,94.30
2022-07-31T01:52:21.973Z,94.10
2022-07-31T01:54:49.368Z,94.10
2022-07-31T01:57:18.600Z,94.10
2022-07-31T01:59:47.926Z,93.90
2022-07-31T02:02:16.665Z,93.80
2022-07-31T02:04:47.138Z,93.90
2022-07-31T02:07:15.168Z,93.50
2022-07-31T02:09:57.851Z,93.60
2022-07-31T02:12:33.110Z,93.50
2022-07-31T02:15:06.349Z,93.50
2022-07-31T02:17:34.751Z,93.40
2022-07-31T02:20:03.205Z,93.30
2022-07-31T02:22:30.009Z,93.40
2022-07-31T02:24:57.119Z,93.20
2022-07-31T02:27:54.563Z,92.90
2022-07-31T02:30:16.108Z,92.90
2022-07-31T02:32:46.623Z,93.00
2022-07-31T02:35:15.533Z,92.70
2022-07-31T02:37:43.965Z,92.80
2022-07-31T02:40:13.237Z,92.70
2022-07-31T02:42:41.453Z,92.90
2022-07-31T02:45:09.918Z,92.80
2022-07-31T02:47:38.078Z,92.70
2022-07-31T02:50:06.331Z,92.70
2022-07-31T02:52:34.455Z,92.70
2022-07-31T02:55:03.043Z,92.80
2022-07-31T02:57:29.924Z,92.70
2022-07-31T02:59:56.767Z,92.80
2022-07-31T03:02:23.618Z,92.60
2022-07-31T03:05:04.107Z,92.50
2022-07-31T03:07:31.537Z,92.40
2022-07-31T03:09:58.812Z,92.20
2022-07-31T03:12:25.653Z,92.20
2022-07-31T03:14:54.519Z,91.70
2022-07-31T03:17:21.673Z,91.30
2022-07-31T03:19:49.467Z,90.70
2022-07-31T03:22:16.402Z,90.20
2022-07-31T03:24:43.629Z,89.80
2022-07-31T03:27:10.466Z,89.20
2022-07-31T03:29:41.862Z,88.90
2022-07-31T03:32:10.663Z,87.90
2022-07-31T03:34:37.467Z,87.80
2022-07-31T03:37:04.244Z,87.90
2022-07-31T03:39:31.062Z,87.30
2022-07-31T03:41:58.512Z,86.90
2022-07-31T03:44:26.163Z,86.20
2022-07-31T03:46:53.599Z,85.30
2022-07-31T03:49:21.740Z,84.10
2022-07-31T03:51:48.600Z,84.80
2022-07-31T03:54:15.520Z,84.60
2022-07-31T03:56:46.436Z,84.40
2022-07-31T03:59:15.800Z,84.60
2022-07-31T04:01:57.883Z,84.40
2022-07-31T04:04:30.621Z,83.70
2022-07-31T04:06:57.557Z,82.40
2022-07-31T04:09:24.376Z,82.10
2022-07-31T04:11:51.206Z,81.40
2022-07-31T04:14:17.986Z,80.80
2022-07-31T04:16:44.759Z,80.40
2022-07-31T04:19:11.751Z,80.60
2022-07-31T04:21:38.513Z,79.80
2022-07-31T04:24:05.711Z,81.00
2022-07-31T04:26:32.496Z,81.80
2022-07-31T04:28:59.272Z,81.70
2022-07-31T04:31:26.047Z,82.00
2022-07-31T04:33:56.473Z,83.80
2022-07-31T04:36:30.176Z,84.20
2022-07-31T04:38:58.619Z,83.70
2022-07-31T04:41:25.492Z,82.80
2022-07-31T04:43:52.317Z,82.80
2022-07-31T04:46:19.271Z,83.80
2022-07-31T04:48:46.152Z,84.70
2022-07-31T04:51:20.459Z,85.50
2022-07-31T04:53:47.425Z,86.20
2022-07-31T04:56:33.861Z,86.50
2022-07-31T04:59:06.352Z,86.60
2022-07-31T05:01:34.310Z,86.30
2022-07-31T05:04:01.825Z,86.30
2022-07-31T05:06:40.352Z,85.80
2022-07-31T05:09:11.560Z,85.50
2022-07-31T05:11:42.560Z,86.80
2022-07-31T05:14:11.567Z,86.90
2022-07-31T05:16:38.556Z,84.80
2022-07-31T05:19:13.756Z,83.70
2022-07-31T05:21:53.257Z,82.80
2022-07-31T05:24:32.471Z,83.00
2022-07-31T05:27:01.544Z,83.20
2022-07-31T05:29:28.504Z,83.90
2022-07-31T05:32:09.841Z,83.50
2022-07-31T05:34:36.739Z,82.40
2022-07-31T05:37:03.827Z,79.50
2022-07-31T05:39:31.120Z,79.00
2022-07-31T05:41:58.052Z,78.20
2022-07-31T05:44:24.967Z,77.60
2022-07-31T05:49:18.229Z,77.00
2022-07-31T05:51:46.631Z,76.20
2022-07-31T05:54:13.800Z,75.70
2022-07-31T05:56:40.652Z,75.50
2022-07-31T05:59:07.424Z,74.80
2022-07-31T06:01:34.344Z,73.40
2022-07-31T06:04:02.552Z,72.70
2022-07-31T06:06:29.391Z,73.70
2022-07-31T06:08:59.430Z,74.30
2022-07-31T06:11:30.524Z,75.30
2022-07-31T06:13:57.287Z,74.60
2022-07-31T06:16:24.255Z,75.20
2022-07-31T06:18:51.143Z,75.30
2022-07-31T06:23:43.579Z,77.60
2022-07-31T06:26:12.344Z,78.10
2022-07-31T06:28:47.599Z,77.90
2022-07-31T06:31:20.633Z,77.40
2022-07-31T06:33:48.791Z,76.20
2022-07-31T06:36:17.544Z,75.60
2022-07-31T06:38:44.461Z,75.20
2022-07-31T06:41:11.302Z,74.60
2022-07-31T06:43:38.051Z,73.80
2022-07-31T06:46:04.917Z,72.80
2022-07-31T06:48:31.698Z,73.00
2022-07-31T06:53:45.299Z,71.90
2022-07-31T06:56:12.122Z,71.10
2022-07-31T06:58:38.881Z,72.60
2022-07-31T07:01:05.938Z,72.60
2022-07-31T07:03:32.744Z,72.60
2022-07-31T07:05:59.590Z,71.60
2022-07-31T07:08:26.536Z,71.80
2022-07-31T07:10:53.301Z,72.10
2022-07-31T07:13:20.343Z,72.40
2022-07-31T07:15:48.655Z,71.90
2022-07-31T07:18:15.412Z,70.90
2022-07-31T07:20:42.483Z,69.70
2022-07-31T07:23:09.327Z,69.60
2022-07-31T07:25:36.119Z,69.20
2022-07-31T07:28:02.920Z,69.30
2022-07-31T07:30:30.256Z,67.80
2022-07-31T07:32:57.035Z,67.50
2022-07-31T07:35:23.807Z,69.00
2022-07-31T07:37:50.842Z,70.20
2022-07-31T07:40:17.932Z,69.80
2022-07-31T07:42:45.294Z,68.30
2022-07-31T07:45:13.852Z,67.10
2022-07-31T07:47:54.137Z,66.70
2022-07-31T07:50:29.286Z,66.50
2022-07-31T07:52:56.690Z,66.70
2022-07-31T07:55:23.866Z,66.20
2022-07-31T07:57:50.917Z,67.00
2022-07-31T08:00:18.239Z,67.20
2022-07-31T08:03:46.951Z,68.60
2022-07-31T08:05:32.965Z,67.80
2022-07-31T08:07:59.757Z,67.80
2022-07-31T08:10:26.554Z,67.60
2022-07-31T08:12:54.835Z,67.90
2022-07-31T08:15:21.726Z,68.10
2022-07-31T08:17:48.480Z,67.50
2022-07-31T08:20:15.276Z,68.00
2022-07-31T08:22:42.019Z,68.00
2022-07-31T08:25:14.210Z,68.00
2022-07-31T08:27:42.131Z,68.30
2022-07-31T08:30:09.877Z,67.50
2022-07-31T08:32:38.530Z,67.60
2022-07-31T08:35:05.842Z,67.40
2022-07-31T08:37:51.111Z,67.90
2022-07-31T08:40:20.765Z,68.30
2022-07-31T08:42:47.629Z,68.60
2022-07-31T08:45:15.099Z,67.80
2022-07-31T08:47:45.985Z,68.40
2022-07-31T08:50:15.311Z,68.50
2022-07-31T08:52:45.485Z,69.20
2022-07-31T08:55:55.212Z,68.40
2022-07-31T08:58:00.129Z,68.70
2022-07-31T09:00:28.871Z,68.10
2022-07-31T09:02:55.808Z,66.80
2022-07-31T09:05:24.597Z,68.60
2022-07-31T09:07:51.968Z,68.00
2022-07-31T09:10:23.574Z,68.50
2022-07-31T09:12:50.545Z,68.10
2022-07-31T09:15:25.206Z,67.70
2022-07-31T09:17:54.200Z,68.20
2022-07-31T09:20:23.841Z,68.30
2022-07-31T09:23:05.457Z,67.90
2022-07-31T09:25:32.343Z,67.90
2022-07-31T09:28:03.755Z,68.50
2022-07-31T09:30:30.815Z,66.50
2022-07-31T09:33:13.872Z,66.80
2022-07-31T09:35:50.758Z,67.00
2022-07-31T09:38:18.443Z,67.00
2022-07-31T09:40:55.387Z,67.60
2022-07-31T09:43:25.931Z,67.30
2022-07-31T09:46:00.386Z,67.10
2022-07-31T09:48:28.857Z,65.20
2022-07-31T09:51:01.685Z,65.30
2022-07-31T09:53:56.566Z,66.10
2022-07-31T09:56:33.597Z,64.60
2022-07-31T09:59:01.335Z,65.10
2022-07-31T10:01:29.083Z,65.40
2022-07-31T10:04:00.734Z,66.00
2022-07-31T10:06:32.060Z,66.20
2022-07-31T10:09:00.104Z,63.90
2022-07-31T10:11:29.123Z,63.00
2022-07-31T10:14:00.293Z,64.50
2022-07-31T10:16:29.673Z,64.00
2022-07-31T10:19:11.260Z,64.40
2022-07-31T10:21:43.750Z,65.10
2022-07-31T10:24:12.490Z,65.70
2022-07-31T10:26:59.857Z,65.50
2022-07-31T10:29:27.619Z,65.00
2022-07-31T10:32:00.178Z,64.00
2022-07-31T10:34:27.503Z,64.20
2022-07-31T10:36:59.245Z,65.10
2022-07-31T10:39:39.784Z,65.60
2022-07-31T10:42:13.163Z,64.80
2022-07-31T10:44:47.061Z,64.70
2022-07-31T10:47:15.091Z,64.40
2022-07-31T10:49:49.716Z,64.30
2022-07-31T10:52:34.888Z,64.50
2022-07-31T10:55:02.120Z,65.40
2022-07-31T10:57:34.069Z,65.30
2022-07-31T11:00:18.409Z,65.10
2022-07-31T11:02:46.029Z,65.80
2022-07-31T11:05:23.611Z,66.20
2022-07-31T11:08:01.934Z,66.20
2022-07-31T11:10:28.847Z,66.10
2022-07-31T11:13:10.943Z,65.80
2022-07-31T11:15:37.787Z,66.20
2022-07-31T11:18:25.695Z,66.30
2022-07-31T11:21:17.431Z,66.50
2022-07-31T11:23:56.073Z,66.70
2022-07-31T11:26:33.063Z,67.80
2022-07-31T11:29:59.557Z,67.30
2022-07-31T11:31:55.143Z,67.00
2022-07-31T11:34:21.941Z,66.50
2022-07-31T11:36:51.414Z,66.60
2022-07-31T11:39:18.809Z,66.90
2022-07-31T11:41:52.590Z,67.00
2022-07-31T11:44:22.787Z,66.30
2022-07-31T11:46:51.273Z,66.80
2022-07-31T11:49:44.125Z,67.00
2022-07-31T11:52:30.798Z,67.20
2022-07-31T11:55:13.832Z,66.20
2022-07-31T11:57:51.885Z,65.80
2022-07-31T12:00:26.492Z,66.10
2022-07-31T12:02:57.372Z,66.70
2022-07-31T12:05:38.026Z,66.60
2022-07-31T12:08:05.661Z,66.40
2022-07-31T12:10:32.560Z,66.70
2022-07-31T12:12:59.504Z,66.30
2022-07-31T12:15:26.264Z,65.40
2022-07-31T12:18:02.126Z,66.10
2022-07-31T12:20:35.809Z,66.40
2022-07-31T12:23:05.087Z,66.40
2022-07-31T12:25:46.064Z,66.30
2022-07-31T12:28:17.187Z,66.10
2022-07-31T12:30:45.252Z,65.90
2022-07-31T12:33:14.920Z,66.00
2022-07-31T12:35:55.928Z,66.10
2022-07-31T12:38:48.049Z,65.50
2022-07-31T12:41:14.715Z,65.50
2022-07-31T12:43:51.156Z,65.30
2022-07-31T12:46:39.493Z,65.70
2022-07-31T12:49:06.729Z,65.90
2022-07-31T12:51:44.775Z,66.30
2022-07-31T12:54:15.918Z,66.20
2022-07-31T12:56:43.658Z,66.80
2022-07-31T12:59:10.596Z,66.90
2022-07-31T13:01:38.184Z,67.10
2022-07-31T13:04:07.705Z,67.30
2022-07-31T13:06:37.488Z,67.00
2022-07-31T13:09:04.896Z,67.00
2022-07-31T13:11:46.696Z,67.10
2022-07-31T13:14:20.374Z,66.60
2022-07-31T13:16:49.743Z,65.80
2022-07-31T13:19:17.026Z,65.50
2022-07-31T13:21:48.499Z,66.20
2022-07-31T13:24:20.233Z,66.20
2022-07-31T13:26:48.125Z,66.00
2022-07-31T13:29:15.561Z,66.10
2022-07-31T13:31:42.608Z,66.30
2022-07-31T13:34:09.452Z,67.40
2022-07-31T13:36:39.978Z,67.00
2022-07-31T13:39:08.201Z,66.70
2022-07-31T13:41:35.693Z,67.20
2022-07-31T13:44:03.211Z,67.20
2022-07-31T13:46:31.285Z,67.40
2022-07-31T13:49:02.194Z,67.40
2022-07-31T13:51:32.373Z,67.80
2022-07-31T13:54:01.466Z,67.90
2022-07-31T13:56:34.090Z,67.60
2022-07-31T13:59:09.841Z,68.50
2022-07-31T14:02:03.529Z,67.90
2022-07-31T14:04:26.289Z,67.90
2022-07-31T14:06:58.171Z,67.40
2022-07-31T14:09:27.972Z,67.20
2022-07-31T14:11:54.794Z,67.00
2022-07-31T14:14:23.754Z,67.60
2022-07-31T14:16:51.075Z,67.20
2022-07-31T14:19:18.290Z,67.50
2022-07-31T14:21:56.039Z,67.10
2022-07-31T14:24:31.979Z,67.10
2022-07-31T14:26:58.888Z,67.20
2022-07-31T14:29:25.765Z,67.20
2022-07-31T14:31:52.551Z,67.50
2022-07-31T14:34:19.382Z,66.90
2022-07-31T14:36:46.180Z,67.00
2022-07-31T14:39:13.053Z,67.50
2022-07-31T14:41:39.833Z,67.20
2022-07-31T14:44:06.645Z,67.80
2022-07-31T14:46:33.505Z,67.20
2022-07-31T14:49:02.530Z,66.80
2022-07-31T14:51:29.373Z,67.20
2022-07-31T14:53:56.149Z,67.00
2022-07-31T14:56:45.028Z,67.00
2022-07-31T14:59:09.849Z,67.00
2022-07-31T15:01:36.742Z,66.70
2022-07-31T15:04:03.846Z,67.60
2022-07-31T15:06:48.658Z,66.20
2022-07-31T15:09:19.513Z,67.00
2022-07-31T15:11:59.542Z,66.90
2022-07-31T15:14:27.660Z,67.20
2022-07-31T15:16:54.535Z,68.20
2022-07-31T15:19:21.300Z,67.90
2022-07-31T15:22:10.728Z,67.90
2022-07-31T15:24:35.350Z,68.10
2022-07-31T15:27:02.664Z,68.30
2022-07-31T15:30:03.692Z,68.60
2022-07-31T15:32:16.924Z,67.40
2022-07-31T15:34:43.784Z,67.90
2022-07-31T15:37:10.616Z,67.80
2022-07-31T15:40:03.386Z,67.80
2022-07-31T15:42:31.988Z,67.90
2022-07-31T15:44:58.993Z,67.40
2022-07-31T15:47:25.876Z,67.50
2022-07-31T15:49:52.705Z,68.30
2022-07-31T15:52:19.841Z,68.70
2022-07-31T15:54:47.255Z,69.00
2022-07-31T15:57:22.515Z,69.20
2022-07-31T15:59:55.754Z,69.80
2022-07-31T16:02:23.753Z,69.70
2022-07-31T16:04:53.455Z,69.90
2022-07-31T16:08:31.203Z,69.90
2022-07-31T16:10:15.366Z,70.30
2022-07-31T16:12:43.131Z,70.50
2022-07-31T16:15:12.309Z,70.50
2022-07-31T16:17:39.345Z,70.90
2022-07-31T16:20:11.900Z,71.20
2022-07-31T16:22:40.990Z,71.20
2022-07-31T16:25:09.991Z,71.30
2022-07-31T16:27:37.962Z,71.40
2022-07-31T16:30:06.384Z,71.10
2022-07-31T16:32:33.856Z,71.10
2022-07-31T16:35:01.670Z,71.30
2022-07-31T16:37:52.554Z,71.70
2022-07-31T16:40:30.758Z,71.90
2022-07-31T16:43:48.048Z,71.90
2022-07-31T16:45:50.372Z,72.50
2022-07-31T16:48:17.468Z,73.20
2022-07-31T16:50:44.317Z,72.40
2022-07-31T16:54:10.014Z,72.50
2022-07-31T16:56:01.725Z,72.00
2022-07-31T16:58:29.465Z,72.10
2022-07-31T17:00:56.770Z,72.40
2022-07-31T17:03:59.326Z,72.60
2022-07-31T17:06:11.717Z,72.70
2022-07-31T17:08:38.662Z,72.80
2022-07-31T17:11:05.786Z,72.70
2022-07-31T17:13:32.686Z,72.60
2022-07-31T17:15:59.592Z,72.90
2022-07-31T17:18:26.526Z,72.80
2022-07-31T17:20:55.658Z,72.90
2022-07-31T17:23:43.195Z,73.10
2022-07-31T17:26:21.583Z,73.10
2022-07-31T17:28:50.728Z,73.30
2022-07-31T17:31:18.757Z,73.90
2022-07-31T17:33:54.686Z,73.30
2022-07-31T17:36:27.517Z,73.50
2022-07-31T17:38:54.314Z,73.50
2022-07-31T17:41:24.758Z,73.80
2022-07-31T17:43:53.423Z,74.00
2022-07-31T17:47:07.547Z,74.10
2022-07-31T17:49:19.199Z,74.20
2022-07-31T17:51:59.326Z,74.40
2022-07-31T17:54:34.158Z,74.50
2022-07-31T17:57:01.067Z,74.90
2022-07-31T17:59:28.597Z,75.30
2022-07-31T18:02:03.918Z,75.70
2022-07-31T18:04:33.059Z,75.70
2022-07-31T18:07:01.459Z,75.80
2022-07-31T18:09:29.136Z,75.90
2022-07-31T18:11:57.510Z,76.00
2022-07-31T18:14:25.150Z,76.10
2022-07-31T18:16:52.432Z,76.10
2022-07-31T18:19:20.135Z,76.30
2022-07-31T18:21:47.268Z,76.40
2022-07-31T18:24:14.100Z,76.60
2022-07-31T18:26:40.960Z,76.70
2022-07-31T18:29:07.753Z,77.00
2022-07-31T18:31:35.951Z,77.00
2022-07-31T18:34:06.766Z,77.10
2022-07-31T18:36:34.590Z,77.30
2022-07-31T18:39:02.348Z,77.30
2022-07-31T18:41:29.784Z,77.50
2022-07-31T18:43:57.230Z,77.80
2022-07-31T18:46:24.913Z,78.00
2022-07-31T18:48:56.167Z,78.00
2022-07-31T18:51:24.635Z,78.30
2022-07-31T18:53:51.958Z,78.40
2022-07-31T18:56:22.162Z,78.50
2022-07-31T18:58:49.035Z,78.70
2022-07-31T19:01:15.930Z,78.70
2022-07-31T19:03:42.770Z,78.90
2022-07-31T19:06:09.677Z,79.10
2022-07-31T19:08:36.579Z,79.20
2022-07-31T19:11:03.660Z,79.30
2022-07-31T19:13:30.613Z,79.50
2022-07-31T19:15:57.442Z,79.60
2022-07-31T19:18:26.371Z,79.90
2022-07-31T19:21:00.234Z,79.80
2022-07-31T19:23:42.403Z,79.80
2022-07-31T19:26:09.446Z,79.90
2022-07-31T19:28:36.756Z,79.80
2022-07-31T19:31:03.674Z,80.00
2022-07-31T19:33:30.604Z,80.10
2022-07-31T19:36:01.938Z,80.20
2022-07-31T19:38:31.343Z,80.30
2022-07-31T19:40:58.372Z,80.30
2022-07-31T19:43:25.233Z,80.40
2022-07-31T19:46:09.610Z,80.40
2022-07-31T19:48:43.895Z,80.40
2022-07-31T19:51:12.442Z,80.60
2022-07-31T19:53:39.535Z,80.70
2022-07-31T19:56:06.965Z,81.00
2022-07-31T19:58:35.503Z,81.10
2022-07-31T20:01:04.601Z,81.00
2022-07-31T20:03:31.493Z,81.20
2022-07-31T20:05:58.673Z,81.40
2022-07-31T20:08:25.489Z,81.40
2022-07-31T20:10:52.793Z,81.60
2022-07-31T20:13:19.880Z,81.50
2022-07-31T20:15:50.959Z,81.50
2022-07-31T20:18:27.837Z,81.70
2022-07-31T20:20:57.279Z,82.00
2022-07-31T20:23:25.119Z,82.00
2022-07-31T20:25:52.001Z,81.90
2022-07-31T20:28:18.893Z,82.10
2022-07-31T20:30:45.755Z,82.10
2022-07-31T20:33:13.291Z,81.90
2022-07-31T20:35:48.671Z,82.20
2022-07-31T20:38:26.104Z,82.40
2022-07-31T20:40:55.740Z,82.60
2022-07-31T20:43:28.321Z,82.40
2022-07-31T20:45:59.773Z,82.60
2022-07-31T20:48:32.332Z,82.70
2022-07-31T20:51:00.442Z,82.40
2022-07-31T20:53:27.611Z,82.70
2022-07-31T20:55:54.563Z,82.30
2022-07-31T20:58:23.118Z,82.70
2022-07-31T21:00:51.563Z,82.20
2022-07-31T21:03:19.416Z,82.50
2022-07-31T21:05:47.010Z,82.70
2022-07-31T21:08:14.022Z,82.70
2022-07-31T21:10:41.079Z,83.00
2022-07-31T21:13:09.077Z,83.40
2022-07-31T21:15:43.792Z,83.60
2022-07-31T21:18:18.855Z,84.00
2022-07-31T21:20:52.078Z,84.00
2022-07-31T21:23:26.847Z,85.00
2022-07-31T21:25:55.596Z,84.90
2022-07-31T21:28:23.567Z,85.10
2022-07-31T21:30:50.964Z,85.30
2022-07-31T21:33:18.374Z,85.60
2022-07-31T21:35:46.158Z,86.10
2022-07-31T21:38:15.738Z,86.20
2022-07-31T21:40:43.879Z,86.60
2022-07-31T21:43:11.828Z,86.70
2022-07-31T21:45:55.276Z,86.80
2022-07-31T21:48:26.481Z,87.60
2022-07-31T21:50:54.386Z,87.10
2022-07-31T21:53:21.316Z,87.30
2022-07-31T21:55:48.159Z,87.20
2022-07-31T21:58:15.060Z,87.50
2022-07-31T22:00:42.071Z,87.30
2022-07-31T22:03:09.027Z,87.60
2022-07-31T22:05:54.319Z,87.40
2022-07-31T22:08:21.134Z,87.50
2022-07-31T22:10:51.309Z,87.70
2022-07-31T22:13:19.519Z,87.80
2022-07-31T22:15:54.240Z,88.10
2022-07-31T22:18:32.318Z,88.30
2022-07-31T22:21:00.476Z,88.70
2022-07-31T22:23:28.453Z,88.60
2022-07-31T22:25:56.080Z,88.70
2022-07-31T22:28:24.063Z,88.90
2022-07-31T22:30:51.829Z,89.00
2022-07-31T22:33:19.411Z,88.90
2022-07-31T22:35:59.669Z,89.00
2022-07-31T22:38:29.679Z,88.70
2022-07-31T22:40:57.573Z,89.10
2022-07-31T22:44:12.725Z,89.80
2022-07-31T22:46:14.986Z,89.10
2022-07-31T22:48:41.959Z,89.50
2022-07-31T22:51:14.240Z,89.80
2022-07-31T22:53:43.275Z,89.80
2022-07-31T22:56:10.177Z,90.00
2022-07-31T22:58:36.987Z,90.10
2022-07-31T23:01:04.509Z,90.10
2022-07-31T23:03:31.304Z,90.20
2022-07-31T23:06:03.673Z,90.10
2022-07-31T23:08:44.843Z,90.20
2022-07-31T23:11:11.681Z,90.10
2022-07-31T23:13:39.824Z,90.20
2022-07-31T23:16:06.673Z,90.30
2022-07-31T23:18:33.493Z,90.30
2022-07-31T23:21:00.248Z,90.30
2022-07-31T23:23:27.197Z,90.40
2022-07-31T23:25:53.954Z,90.60
2022-07-31T23:28:20.762Z,90.80
2022-07-31T23:30:47.583Z,90.90
2022-07-31T23:33:16.408Z,91.10
2022-07-31T23:35:43.991Z,91.00
2022-07-31T23:38:10.803Z,91.10
2022-07-31T23:40:37.645Z,90.90
2022-07-31T23:43:04.499Z,90.90
2022-07-31T23:45:31.266Z,91.00
2022-07-31T23:47:58.913Z,90.70
2022-07-31T23:50:25.995Z,90.60
2022-07-31T23:52:52.875Z,90.90
2022-07-31T23:55:19.913Z,91.10
2022-07-31T23:57:46.702Z,91.30
